Time;durP1;ratioP1;P1;durP2;ratioP2;P2;SDS_P1;SDS_P2;PMS_P1;PMS_P2;Temp;Humidity;BMP_temperature;BMP_pressure;BME280_temperature;BME280_humidity;BME280_pressure;Samples;Min_cycle;Max_cycle;Signal;HPM_P1;HPM_P2
2022/09/04 00:01:06;;;;;;;5.50;3.73;;;;;;;;;;4952437;28;20265;-78
2022/09/04 00:03:39;;;;;;;5.97;3.97;;;;;;;;;;4959178;28;20245;-78
2022/09/04 00:06:14;;;;;;;6.47;3.80;;;;;;;;;;4951683;28;20206;-78
2022/09/04 00:08:46;;;;;;;5.50;3.67;;;;;;;;;;4954329;28;20202;-79
2022/09/04 00:11:17;;;;;;;9.43;4.20;;;;;;;;;;4952336;28;20265;-79
2022/09/04 00:13:47;;;;;;;5.50;3.57;;;;;;;;;;4952662;28;20293;-79
2022/09/04 00:16:18;;;;;;;7.27;3.80;;;;;;;;;;4953021;28;20212;-78
2022/09/04 00:18:47;;;;;;;5.80;3.90;;;;;;;;;;4953863;28;20214;-78
2022/09/04 00:21:19;;;;;;;5.27;3.43;;;;;;;;;;4955344;28;20289;-79
2022/09/04 00:23:51;;;;;;;5.47;3.80;;;;;;;;;;4954019;28;20206;-78
2022/09/04 00:26:21;;;;;;;5.77;3.80;;;;;;;;;;4950098;28;20253;-78
2022/09/04 00:28:49;;;;;;;8.10;3.97;;;;;;;;;;4951194;28;20692;-78
2022/09/04 00:31:24;;;;;;;5.97;3.37;;;;;;;;;;4954137;28;20256;-78
2022/09/04 00:33:55;;;;;;;6.67;3.30;;;;;;;;;;4955969;28;20213;-78
2022/09/04 00:36:26;;;;;;;7.00;3.60;;;;;;;;;;4953625;28;20778;-78
2022/09/04 00:38:55;;;;;;;5.83;3.93;;;;;;;;;;4949768;28;20209;-78
2022/09/04 00:41:26;;;;;;;6.73;4.20;;;;;;;;;;4953658;28;20217;-78
2022/09/04 00:44:18;;;;;;;6.87;4.07;;;;;;;;;;4950765;28;20302;-78
2022/09/04 00:46:52;;;;;;;7.03;3.97;;;;;;;;;;4954157;28;20229;-79
2022/09/04 00:49:27;;;;;;;4.60;3.60;;;;;;;;;;4954645;28;20206;-78
2022/09/04 00:52:01;;;;;;;5.60;3.70;;;;;;;;;;4955583;28;20233;-78
2022/09/04 00:54:38;;;;;;;4.90;3.80;;;;;;;;;;4948485;28;20202;-78
2022/09/04 00:57:24;;;;;;;4.93;3.60;;;;;;;;;;4951186;28;20743;-78
2022/09/04 01:00:09;;;;;;;6.37;3.90;;;;;;;;;;4951384;28;20633;-78
2022/09/04 01:02:43;;;;;;;6.97;3.50;;;;;;;;;;4951102;28;20568;-78
2022/09/04 01:05:15;;;;;;;4.43;3.70;;;;;;;;;;4949860;28;20665;-77
2022/09/04 01:07:50;;;;;;;8.73;3.83;;;;;;;;;;4953608;28;20700;-78
2022/09/04 01:10:24;;;;;;;5.43;3.77;;;;;;;;;;4949372;28;20233;-78
2022/09/04 01:12:57;;;;;;;5.60;3.80;;;;;;;;;;4953232;28;20265;-78
2022/09/04 01:15:27;;;;;;;5.67;3.50;;;;;;;;;;4950854;28;20215;-78
2022/09/04 01:18:00;;;;;;;4.90;3.70;;;;;;;;;;4951169;28;20230;-79
2022/09/04 01:20:34;;;;;;;8.30;3.93;;;;;;;;;;4952677;28;20218;-78
2022/09/04 01:23:22;;;;;;;4.80;3.80;;;;;;;;;;4950140;28;20241;-79
2022/09/04 01:25:57;;;;;;;6.97;3.83;;;;;;;;;;4946841;28;20289;-78
2022/09/04 01:28:26;;;;;;;4.97;3.70;;;;;;;;;;4950164;28;20297;-78
2022/09/04 01:30:57;;;;;;;4.90;3.70;;;;;;;;;;4950066;28;20328;-78
2022/09/04 01:33:27;;;;;;;7.27;3.60;;;;;;;;;;4954264;28;20266;-78
2022/09/04 01:35:57;;;;;;;6.47;4.10;;;;;;;;;;4951138;28;20658;-78
2022/09/04 01:38:32;;;;;;;6.77;3.70;;;;;;;;;;4950223;28;20242;-78
2022/09/04 01:41:03;;;;;;;6.37;3.97;;;;;;;;;;4950597;28;20220;-78
2022/09/04 01:43:31;;;;;;;4.10;3.50;;;;;;;;;;4953843;28;20210;-78
2022/09/04 01:46:20;;;;;;;5.23;3.90;;;;;;;;;;4947650;28;20218;-78
2022/09/04 01:48:50;;;;;;;4.43;3.77;;;;;;;;;;4949774;28;20681;-78
2022/09/04 01:51:21;;;;;;;7.23;3.50;;;;;;;;;;4949182;28;20322;-78
2022/09/04 01:53:54;;;;;;;6.93;3.40;;;;;;;;;;4948154;28;20297;-78
2022/09/04 01:56:27;;;;;;;5.00;3.57;;;;;;;;;;4950233;28;20695;-78
2022/09/04 01:58:56;;;;;;;5.37;3.50;;;;;;;;;;4944484;28;20246;-78
2022/09/04 02:01:29;;;;;;;5.37;3.70;;;;;;;;;;4952498;28;20207;-78
2022/09/04 02:04:01;;;;;;;5.37;3.77;;;;;;;;;;4947852;28;20294;-79
2022/09/04 02:06:32;;;;;;;6.57;3.47;;;;;;;;;;4951601;28;20772;-78
2022/09/04 02:09:10;;;;;;;6.80;3.90;;;;;;;;;;4953277;28;20214;-78
2022/09/04 02:11:41;;;;;;;5.43;4.00;;;;;;;;;;4951027;28;20233;-78
2022/09/04 02:14:16;;;;;;;8.47;4.00;;;;;;;;;;4949536;28;20202;-78
2022/09/04 02:16:47;;;;;;;5.57;3.80;;;;;;;;;;4961971;28;20254;-78
2022/09/04 02:19:20;;;;;;;5.57;4.10;;;;;;;;;;4958125;28;20288;-79
2022/09/04 02:21:52;;;;;;;8.30;4.33;;;;;;;;;;4953771;28;20705;-78
2022/09/04 02:24:22;;;;;;;5.17;3.87;;;;;;;;;;4946015;28;20321;-78
2022/09/04 02:26:53;;;;;;;8.20;3.90;;;;;;;;;;4947273;28;20231;-78
2022/09/04 02:29:24;;;;;;;8.00;3.90;;;;;;;;;;4948724;28;20713;-78
2022/09/04 02:31:55;;;;;;;6.40;4.13;;;;;;;;;;4952744;28;20322;-78
2022/09/04 02:34:26;;;;;;;5.83;3.90;;;;;;;;;;4948470;28;21458;-78
2022/09/04 02:36:56;;;;;;;7.00;3.87;;;;;;;;;;4952854;28;20250;-78
2022/09/04 02:39:33;;;;;;;10.80;4.53;;;;;;;;;;4949792;28;20210;-78
2022/09/04 02:42:09;;;;;;;7.70;4.00;;;;;;;;;;4949506;28;20241;-78
2022/09/04 02:44:42;;;;;;;4.43;3.43;;;;;;;;;;4954968;28;20297;-78
2022/09/04 02:47:13;;;;;;;6.13;4.00;;;;;;;;;;4952340;28;20267;-78
2022/09/04 02:49:47;;;;;;;5.23;3.83;;;;;;;;;;4957713;28;20233;-78
2022/09/04 02:52:19;;;;;;;5.70;3.90;;;;;;;;;;4951770;28;20226;-78
2022/09/04 02:54:51;;;;;;;5.20;4.07;;;;;;;;;;4952321;28;20202;-78
2022/09/04 02:57:28;;;;;;;5.77;4.03;;;;;;;;;;4955770;28;20321;-78
2022/09/04 03:00:03;;;;;;;5.10;3.57;;;;;;;;;;4952235;28;20210;-78
2022/09/04 03:02:32;;;;;;;5.13;3.97;;;;;;;;;;4955303;28;20202;-78
2022/09/04 03:05:02;;;;;;;5.27;3.77;;;;;;;;;;4949668;28;20229;-78
2022/09/04 03:07:31;;;;;;;5.57;4.07;;;;;;;;;;4954392;28;20226;-78
2022/09/04 03:10:03;;;;;;;6.03;3.77;;;;;;;;;;4950656;28;20234;-79
2022/09/04 03:12:35;;;;;;;4.93;3.70;;;;;;;;;;4956170;28;20318;-78
2022/09/04 03:15:05;;;;;;;7.53;3.77;;;;;;;;;;4956119;28;20241;-78
2022/09/04 03:17:36;;;;;;;5.63;3.70;;;;;;;;;;4953823;28;20265;-79
2022/09/04 03:20:06;;;;;;;5.60;4.30;;;;;;;;;;4953999;28;20258;-78
2022/09/04 03:22:35;;;;;;;5.57;4.30;;;;;;;;;;4951731;28;20235;-78
2022/09/04 03:25:14;;;;;;;5.37;4.00;;;;;;;;;;4953845;28;20298;-78
2022/09/04 03:27:42;;;;;;;6.77;3.60;;;;;;;;;;4953956;28;20257;-78
2022/09/04 03:30:10;;;;;;;4.73;3.67;;;;;;;;;;4953776;28;20246;-78
2022/09/04 03:32:43;;;;;;;5.33;3.53;;;;;;;;;;4952565;28;20233;-78
2022/09/04 03:35:13;;;;;;;5.03;3.80;;;;;;;;;;4951011;28;20309;-78
2022/09/04 03:37:48;;;;;;;7.63;4.27;;;;;;;;;;4952972;28;20261;-78
2022/09/04 03:40:23;;;;;;;5.83;3.60;;;;;;;;;;4948266;28;20297;-78
2022/09/04 03:43:02;;;;;;;7.27;3.87;;;;;;;;;;4950617;28;20292;-78
2022/09/04 03:45:32;;;;;;;4.70;3.77;;;;;;;;;;4949809;28;20266;-79
2022/09/04 03:48:05;;;;;;;5.97;4.07;;;;;;;;;;4949715;28;20257;-78
2022/09/04 03:50:35;;;;;;;5.37;4.03;;;;;;;;;;4950454;28;20266;-78
2022/09/04 03:53:08;;;;;;;4.77;3.70;;;;;;;;;;4955476;28;20262;-79
2022/09/04 03:55:43;;;;;;;6.17;4.50;;;;;;;;;;4952774;28;20225;-79
2022/09/04 03:58:17;;;;;;;7.67;3.63;;;;;;;;;;4953224;28;20309;-79
2022/09/04 04:00:47;;;;;;;5.40;3.80;;;;;;;;;;4956272;28;20217;-79
2022/09/04 04:03:23;;;;;;;7.90;4.43;;;;;;;;;;4952167;28;20263;-79
2022/09/04 04:05:55;;;;;;;7.93;3.87;;;;;;;;;;4955689;28;20406;-79
2022/09/04 04:08:37;;;;;;;4.57;3.70;;;;;;;;;;4958923;28;20617;-79
2022/09/04 04:11:14;;;;;;;7.30;4.30;;;;;;;;;;4921138;28;20210;-78
2022/09/04 04:13:53;;;;;;;9.17;4.20;;;;;;;;;;4955127;28;20194;-79
2022/09/04 04:16:27;;;;;;;6.90;4.20;;;;;;;;;;4954204;28;20297;-79
2022/09/04 04:19:09;;;;;;;8.40;4.50;;;;;;;;;;4952585;28;20269;-78
2022/09/04 04:21:54;;;;;;;5.60;4.37;;;;;;;;;;4952438;28;20551;-78
2022/09/04 04:24:27;;;;;;;6.13;4.13;;;;;;;;;;4949522;28;20234;-79
2022/09/04 04:27:03;;;;;;;10.97;4.10;;;;;;;;;;4951030;28;20234;-78
2022/09/04 04:29:48;;;;;;;6.37;4.33;;;;;;;;;;4952373;28;20677;-78
2022/09/04 04:32:25;;;;;;;5.80;3.90;;;;;;;;;;4943085;28;20237;-78
2022/09/04 04:35:02;;;;;;;8.13;4.10;;;;;;;;;;4948367;28;20285;-78
2022/09/04 04:37:35;;;;;;;5.60;3.80;;;;;;;;;;4952519;28;20244;-78
2022/09/04 04:40:05;;;;;;;5.33;4.00;;;;;;;;;;4951204;28;20305;-79
2022/09/04 04:42:36;;;;;;;7.60;4.20;;;;;;;;;;4952461;28;20234;-78
2022/09/04 04:48:15;;;;;;;7.03;4.30;;;;;;;;;;4952846;28;20358;-78
2022/09/04 04:50:48;;;;;;;7.13;4.40;;;;;;;;;;4952475;28;20258;-78
2022/09/04 04:53:21;;;;;;;5.77;4.00;;;;;;;;;;4946876;29;20684;-80
2022/09/04 04:55:52;;;;;;;7.80;4.07;;;;;;;;;;4949490;29;20274;-77
2022/09/04 04:58:24;;;;;;;6.17;4.30;;;;;;;;;;4946761;28;20230;-80
2022/09/04 05:00:57;;;;;;;8.30;4.57;;;;;;;;;;4954002;28;20213;-80
2022/09/04 05:03:31;;;;;;;7.03;4.37;;;;;;;;;;4950925;28;20311;-79
2022/09/04 05:06:01;;;;;;;4.63;4.03;;;;;;;;;;4951400;28;20293;-80
2022/09/04 05:08:40;;;;;;;5.50;4.17;;;;;;;;;;4954763;28;21044;-79
2022/09/04 05:11:11;;;;;;;5.87;4.10;;;;;;;;;;4952936;28;20210;-80
2022/09/04 05:13:46;;;;;;;5.43;3.90;;;;;;;;;;4953811;28;20316;-78
2022/09/04 05:16:18;;;;;;;7.00;3.83;;;;;;;;;;4950784;28;20210;-80
2022/09/04 05:18:50;;;;;;;4.57;3.63;;;;;;;;;;4948984;28;20226;-79
2022/09/04 05:21:19;;;;;;;4.77;3.67;;;;;;;;;;4951374;28;20302;-80
2022/09/04 05:23:51;;;;;;;8.83;3.70;;;;;;;;;;4950678;28;20631;-80
2022/09/04 05:26:22;;;;;;;4.70;3.67;;;;;;;;;;4949104;28;20253;-79
2022/09/04 05:28:55;;;;;;;5.70;3.90;;;;;;;;;;4948259;28;20659;-79
2022/09/04 05:31:25;;;;;;;7.67;3.80;;;;;;;;;;4952930;28;20238;-79
2022/09/04 05:33:56;;;;;;;5.90;3.50;;;;;;;;;;4951883;28;20265;-79
2022/09/04 05:36:28;;;;;;;4.77;3.57;;;;;;;;;;4951631;28;20253;-79
2022/09/04 05:39:02;;;;;;;6.10;3.33;;;;;;;;;;4955212;28;20719;-79
2022/09/04 05:41:39;;;;;;;3.63;2.90;;;;;;;;;;4954592;28;20744;-79
2022/09/04 05:44:13;;;;;;;4.23;2.87;;;;;;;;;;4955850;28;20198;-80
2022/09/04 05:46:48;;;;;;;7.27;2.80;;;;;;;;;;4957207;28;20607;-80
2022/09/04 05:49:21;;;;;;;5.53;2.60;;;;;;;;;;4953536;28;20244;-80
2022/09/04 05:52:03;;;;;;;4.53;2.30;;;;;;;;;;4961438;28;20205;-80
2022/09/04 05:54:45;;;;;;;4.17;2.37;;;;;;;;;;4943537;28;20690;-80
2022/09/04 05:57:21;;;;;;;5.73;2.33;;;;;;;;;;4954875;28;20236;-81
2022/09/04 06:00:05;;;;;;;4.40;2.30;;;;;;;;;;4956634;28;20241;-80
2022/09/04 06:02:47;;;;;;;2.90;2.40;;;;;;;;;;4952713;28;20875;-79
2022/09/04 06:05:22;;;;;;;4.27;2.77;;;;;;;;;;4943259;28;20305;-80
2022/09/04 06:07:55;;;;;;;3.27;2.30;;;;;;;;;;4951942;28;20235;-79
2022/09/04 06:10:27;;;;;;;3.20;2.33;;;;;;;;;;4959589;28;20289;-80
2022/09/04 06:13:08;;;;;;;3.07;2.20;;;;;;;;;;4959161;28;20242;-79
2022/09/04 06:15:40;;;;;;;6.13;2.17;;;;;;;;;;4949151;28;20217;-81
2022/09/04 06:18:33;;;;;;;3.07;2.30;;;;;;;;;;4958621;28;20257;-78
2022/09/04 06:21:09;;;;;;;5.30;2.40;;;;;;;;;;4957457;28;20207;-80
2022/09/04 06:23:43;;;;;;;4.27;2.40;;;;;;;;;;4959222;28;20208;-79
2022/09/04 06:26:22;;;;;;;6.07;2.23;;;;;;;;;;4958761;28;20270;-80
2022/09/04 06:28:58;;;;;;;4.77;2.10;;;;;;;;;;4961382;28;20680;-78
2022/09/04 06:31:36;;;;;;;2.87;2.17;;;;;;;;;;4959007;28;20270;-79
2022/09/04 06:34:07;;;;;;;5.30;2.50;;;;;;;;;;4961040;28;20212;-80
2022/09/04 06:36:51;;;;;;;3.50;2.77;;;;;;;;;;4963961;28;20313;-79
2022/09/04 06:39:33;;;;;;;3.40;2.50;;;;;;;;;;4956938;28;20211;-78
2022/09/04 06:42:06;;;;;;;3.00;2.70;;;;;;;;;;4961949;28;20587;-78
2022/09/04 06:44:40;;;;;;;5.87;2.47;;;;;;;;;;4960603;28;20206;-79
2022/09/04 06:47:14;;;;;;;3.40;2.47;;;;;;;;;;4957441;28;20720;-78
2022/09/04 06:49:47;;;;;;;3.93;2.70;;;;;;;;;;4959500;28;20208;-79
2022/09/04 06:52:20;;;;;;;7.50;3.33;;;;;;;;;;4954782;28;20364;-79
2022/09/04 06:54:53;;;;;;;4.67;3.00;;;;;;;;;;4960582;28;20214;-79
2022/09/04 06:57:28;;;;;;;5.43;3.30;;;;;;;;;;4952543;28;20258;-79
2022/09/04 07:00:02;;;;;;;6.13;2.90;;;;;;;;;;4952815;28;20210;-79
2022/09/04 07:02:38;;;;;;;5.60;3.20;;;;;;;;;;4953924;28;20206;-80
2022/09/04 07:05:10;;;;;;;4.77;3.50;;;;;;;;;;4956267;28;20270;-78
2022/09/04 07:07:44;;;;;;;7.43;3.13;;;;;;;;;;4955991;28;20265;-78
2022/09/04 07:10:14;;;;;;;5.73;3.10;;;;;;;;;;4956292;28;20248;-79
2022/09/04 07:12:54;;;;;;;5.80;3.30;;;;;;;;;;4956491;28;20217;-80
2022/09/04 07:15:36;;;;;;;4.37;2.90;;;;;;;;;;4953257;28;20716;-80
2022/09/04 07:18:10;;;;;;;6.97;3.30;;;;;;;;;;4958411;28;20237;-80
2022/09/04 07:20:42;;;;;;;3.50;2.70;;;;;;;;;;4952597;28;20238;-79
2022/09/04 07:23:18;;;;;;;4.23;3.20;;;;;;;;;;4958611;28;20234;-79
2022/09/04 07:25:48;;;;;;;5.27;3.20;;;;;;;;;;4949450;28;20209;-79
2022/09/04 07:28:23;;;;;;;5.03;2.83;;;;;;;;;;4955701;28;20234;-80
2022/09/04 07:30:53;;;;;;;4.03;2.87;;;;;;;;;;4952905;28;20198;-78
2022/09/04 07:33:26;;;;;;;4.33;2.63;;;;;;;;;;4956246;28;20262;-78
2022/09/04 07:35:57;;;;;;;4.83;2.80;;;;;;;;;;4953728;28;20210;-78
2022/09/04 07:38:29;;;;;;;3.83;2.73;;;;;;;;;;4951768;28;20756;-79
2022/09/04 07:41:03;;;;;;;7.33;2.90;;;;;;;;;;4952791;28;20703;-79
2022/09/04 07:43:35;;;;;;;6.10;2.80;;;;;;;;;;4955634;28;20275;-79
2022/09/04 07:46:05;;;;;;;4.03;2.97;;;;;;;;;;4956128;28;20297;-78
2022/09/04 07:48:35;;;;;;;5.23;3.13;;;;;;;;;;4951839;28;20277;-80
2022/09/04 07:51:09;;;;;;;3.97;2.73;;;;;;;;;;4953846;28;20233;-78
2022/09/04 07:53:54;;;;;;;6.70;3.17;;;;;;;;;;4950839;28;20250;-80
2022/09/04 07:56:27;;;;;;;4.40;2.90;;;;;;;;;;4951288;28;20261;-78
2022/09/04 07:59:03;;;;;;;5.77;3.37;;;;;;;;;;4952133;28;20213;-79
2022/09/04 08:01:43;;;;;;;6.37;3.03;;;;;;;;;;4951401;28;20202;-79
2022/09/04 08:04:22;;;;;;;7.80;3.63;;;;;;;;;;4950463;28;20194;-78
2022/09/04 08:06:53;;;;;;;7.27;3.57;;;;;;;;;;4950079;28;20316;-79
2022/09/04 08:09:33;;;;;;;5.90;3.10;;;;;;;;;;4952111;28;20302;-78
2022/09/04 08:12:13;;;;;;;5.83;3.50;;;;;;;;;;4951562;29;20241;-77
2022/09/04 08:14:54;;;;;;;6.90;3.60;;;;;;;;;;4953011;28;20353;-80
2022/09/04 08:17:40;;;;;;;6.77;3.67;;;;;;;;;;4952343;28;20264;-81
2022/09/04 08:20:11;;;;;;;9.33;4.27;;;;;;;;;;4950822;28;20287;-78
2022/09/04 08:22:41;;;;;;;5.60;3.97;;;;;;;;;;4948392;28;20229;-78
2022/09/04 08:25:15;;;;;;;6.93;4.20;;;;;;;;;;4946996;28;20211;-78
2022/09/04 08:28:05;;;;;;;8.43;4.40;;;;;;;;;;4948380;28;20312;-81
2022/09/04 08:30:40;;;;;;;7.70;4.77;;;;;;;;;;4943063;28;20279;-78
2022/09/04 08:33:34;;;;;;;8.73;4.57;;;;;;;;;;4944969;28;20210;-78
2022/09/04 08:36:03;;;;;;;8.87;4.53;;;;;;;;;;4915118;28;20237;-79
2022/09/04 08:38:39;;;;;;;10.13;4.67;;;;;;;;;;4948106;28;20215;-78
2022/09/04 08:41:36;;;;;;;8.20;4.70;;;;;;;;;;4947040;28;20206;-79
2022/09/04 08:44:23;;;;;;;7.93;4.40;;;;;;;;;;4952883;28;20237;-79
2022/09/04 08:47:22;;;;;;;7.77;4.57;;;;;;;;;;4944535;28;20226;-79
2022/09/04 08:50:11;;;;;;;11.87;4.30;;;;;;;;;;4948183;28;20285;-79
2022/09/04 08:52:46;;;;;;;7.90;4.50;;;;;;;;;;4947040;28;20554;-77
2022/09/04 08:55:27;;;;;;;6.90;3.90;;;;;;;;;;4946864;28;20233;-79
2022/09/04 08:58:11;;;;;;;6.57;4.10;;;;;;;;;;4949860;28;20299;-78
2022/09/04 09:00:47;;;;;;;8.60;4.20;;;;;;;;;;4948157;28;21944;-78
2022/09/04 09:03:28;;;;;;;7.33;3.93;;;;;;;;;;4947819;28;20256;-79
2022/09/04 09:06:14;;;;;;;7.87;4.07;;;;;;;;;;4944063;28;20755;-80
2022/09/04 09:08:56;;;;;;;7.70;4.47;;;;;;;;;;4948479;28;20249;-79
2022/09/04 09:11:38;;;;;;;6.03;4.00;;;;;;;;;;4934682;28;20728;-79
2022/09/04 09:14:17;;;;;;;10.43;4.00;;;;;;;;;;4911690;28;20245;-79
2022/09/04 09:16:45;;;;;;;6.17;4.17;;;;;;;;;;4945290;28;20232;-78
2022/09/04 09:19:21;;;;;;;7.30;3.90;;;;;;;;;;4946596;28;20210;-78
2022/09/04 09:22:03;;;;;;;5.83;3.60;;;;;;;;;;4942267;28;20202;-78
2022/09/04 09:24:46;;;;;;;6.40;3.90;;;;;;;;;;4952411;28;20198;-78
2022/09/04 09:30:09;;;;;;;5.87;3.77;;;;;;;;;;4954326;28;20214;-78
2022/09/04 09:33:06;;;;;;;5.33;3.53;;;;;;;;;;4948834;28;20240;-78
2022/09/04 09:36:00;;;;;;;5.87;3.57;;;;;;;;;;4950021;28;20216;-79
2022/09/04 09:38:35;;;;;;;5.23;3.20;;;;;;;;;;4948896;28;20221;-79
2022/09/04 09:41:31;;;;;;;4.77;3.30;;;;;;;;;;4949634;28;20288;-78
2022/09/04 09:44:16;;;;;;;6.13;3.30;;;;;;;;;;4949679;28;20285;-79
2022/09/04 09:47:00;;;;;;;5.97;3.60;;;;;;;;;;4946246;28;20726;-78
2022/09/04 09:49:46;;;;;;;3.80;3.00;;;;;;;;;;4949444;29;20250;-80
2022/09/04 09:52:39;;;;;;;5.30;3.27;;;;;;;;;;4951875;29;20210;-79
2022/09/04 09:55:21;;;;;;;5.27;3.10;;;;;;;;;;4955059;28;20257;-79
2022/09/04 09:58:11;;;;;;;3.77;2.87;;;;;;;;;;4951606;28;20278;-79
2022/09/04 10:00:45;;;;;;;3.60;2.70;;;;;;;;;;4951442;28;20685;-79
2022/09/04 10:03:42;;;;;;;5.13;3.23;;;;;;;;;;4954549;28;20585;-79
2022/09/04 10:06:17;;;;;;;5.93;3.30;;;;;;;;;;4955741;28;20234;-79
2022/09/04 10:09:08;;;;;;;4.07;3.03;;;;;;;;;;4952166;28;20300;-81
2022/09/04 10:11:56;;;;;;;4.60;3.20;;;;;;;;;;4948792;28;20330;-79
2022/09/04 10:14:57;;;;;;;4.50;2.77;;;;;;;;;;4951314;28;20218;-80
2022/09/04 10:17:57;;;;;;;5.50;2.93;;;;;;;;;;4942622;28;20317;-79
2022/09/04 10:20:42;;;;;;;5.10;3.07;;;;;;;;;;4952570;28;20194;-78
2022/09/04 10:23:30;;;;;;;5.27;3.03;;;;;;;;;;4953045;28;20209;-79
2022/09/04 10:26:01;;;;;;;4.60;3.00;;;;;;;;;;4953261;28;20210;-80
2022/09/04 10:28:34;;;;;;;4.10;2.67;;;;;;;;;;4947248;28;20317;-79
2022/09/04 10:31:20;;;;;;;4.80;2.70;;;;;;;;;;4947639;28;20309;-79
2022/09/04 10:33:57;;;;;;;4.60;3.00;;;;;;;;;;4951331;28;20253;-81
2022/09/04 10:36:29;;;;;;;4.03;2.87;;;;;;;;;;4953238;28;20226;-78
2022/09/04 10:42:01;;;;;;;4.37;2.90;;;;;;;;;;4962706;28;20227;-78
2022/09/04 10:44:38;;;;;;;4.40;3.00;;;;;;;;;;4954458;28;20236;-79
2022/09/04 10:47:12;;;;;;;4.07;2.80;;;;;;;;;;4956202;28;20316;-81
2022/09/04 10:49:50;;;;;;;4.13;3.10;;;;;;;;;;4949204;28;20218;-80
2022/09/04 10:52:29;;;;;;;3.83;3.00;;;;;;;;;;4951557;28;20234;-78
2022/09/04 10:55:06;;;;;;;3.60;2.90;;;;;;;;;;4950578;28;20234;-79
2022/09/04 10:57:44;;;;;;;6.63;2.90;;;;;;;;;;4948051;28;20316;-80
2022/09/04 11:00:12;;;;;;;3.83;2.80;;;;;;;;;;4954024;28;20268;-80
2022/09/04 11:02:55;;;;;;;4.37;2.53;;;;;;;;;;4946831;28;20215;-80
2022/09/04 11:05:47;;;;;;;4.43;2.93;;;;;;;;;;4954023;28;20209;-79
2022/09/04 11:08:20;;;;;;;4.60;2.63;;;;;;;;;;4896891;29;20260;-80
2022/09/04 11:10:59;;;;;;;4.67;2.80;;;;;;;;;;4945811;28;20207;-78
2022/09/04 11:13:47;;;;;;;4.40;2.80;;;;;;;;;;4946426;28;20215;-79
2022/09/04 11:16:44;;;;;;;4.73;2.97;;;;;;;;;;4948864;28;20696;-77
2022/09/04 11:19:23;;;;;;;3.17;2.70;;;;;;;;;;4886839;29;20232;-79
2022/09/04 11:22:13;;;;;;;3.77;2.47;;;;;;;;;;4940832;28;20278;-78
2022/09/04 11:24:59;;;;;;;4.40;2.67;;;;;;;;;;4944790;28;20324;-80
2022/09/04 11:27:53;;;;;;;4.30;2.57;;;;;;;;;;4941615;28;20228;-80
2022/09/04 11:30:24;;;;;;;4.07;2.70;;;;;;;;;;4939059;28;20233;-78
2022/09/04 11:32:57;;;;;;;5.83;2.60;;;;;;;;;;4943197;28;20220;-79
2022/09/04 11:35:35;;;;;;;3.37;2.40;;;;;;;;;;4946521;28;20233;-78
2022/09/04 11:38:17;;;;;;;3.37;2.63;;;;;;;;;;4943984;28;20280;-79
2022/09/04 11:41:08;;;;;;;3.17;2.33;;;;;;;;;;4945868;28;20218;-80
2022/09/04 11:43:55;;;;;;;6.87;2.40;;;;;;;;;;4950120;28;20218;-80
2022/09/04 11:46:38;;;;;;;3.87;2.27;;;;;;;;;;4946879;28;20265;-79
2022/09/04 11:49:24;;;;;;;3.53;2.00;;;;;;;;;;4947515;28;20262;-78
2022/09/04 11:52:08;;;;;;;3.40;2.30;;;;;;;;;;4948855;28;20290;-79
2022/09/04 11:54:52;;;;;;;3.13;2.23;;;;;;;;;;4947592;28;20945;-80
2022/09/04 11:57:25;;;;;;;3.70;2.17;;;;;;;;;;4947149;28;20720;-79
2022/09/04 12:00:04;;;;;;;3.63;2.00;;;;;;;;;;4945262;28;20215;-79
2022/09/04 12:02:43;;;;;;;4.77;2.10;;;;;;;;;;4947685;28;20204;-78
2022/09/04 12:05:17;;;;;;;3.50;2.10;;;;;;;;;;4947140;28;20208;-78
2022/09/04 12:07:55;;;;;;;3.13;2.00;;;;;;;;;;4948403;28;20321;-80
2022/09/04 12:10:33;;;;;;;4.07;2.03;;;;;;;;;;4945614;28;20555;-79
2022/09/04 12:13:30;;;;;;;2.80;2.17;;;;;;;;;;4942474;28;20824;-79
2022/09/04 12:16:18;;;;;;;3.53;2.40;;;;;;;;;;4886323;29;20306;-79
2022/09/04 12:19:00;;;;;;;2.87;2.10;;;;;;;;;;4941358;28;20741;-80
2022/09/04 12:21:40;;;;;;;8.63;2.70;;;;;;;;;;4943570;28;20206;-79
2022/09/04 12:24:28;;;;;;;5.57;2.30;;;;;;;;;;4951119;28;20309;-79
2022/09/04 12:27:07;;;;;;;3.37;2.43;;;;;;;;;;4945202;28;20305;-78
2022/09/04 12:29:42;;;;;;;6.67;2.57;;;;;;;;;;4945466;28;20258;-78
2022/09/04 12:32:20;;;;;;;6.80;2.63;;;;;;;;;;4939627;28;20294;-79
2022/09/04 12:34:56;;;;;;;7.93;2.20;;;;;;;;;;4945835;28;20214;-79
2022/09/04 12:37:42;;;;;;;5.00;2.57;;;;;;;;;;4948929;28;20305;-79
2022/09/04 12:40:20;;;;;;;4.33;2.40;;;;;;;;;;4948803;28;20734;-83
2022/09/04 12:42:56;;;;;;;3.83;2.50;;;;;;;;;;4947917;28;20256;-79
2022/09/04 12:45:26;;;;;;;2.40;2.10;;;;;;;;;;4949525;28;20212;-80
2022/09/04 12:47:58;;;;;;;5.27;2.20;;;;;;;;;;4944216;28;20885;-79
2022/09/04 12:50:33;;;;;;;3.83;2.30;;;;;;;;;;4951381;28;20626;-82
2022/09/04 12:53:15;;;;;;;2.70;2.20;;;;;;;;;;4956116;28;20213;-80
2022/09/04 12:55:48;;;;;;;3.27;2.30;;;;;;;;;;4947966;28;20246;-79
2022/09/04 12:58:21;;;;;;;3.37;2.20;;;;;;;;;;4945526;28;20683;-78
2022/09/04 13:00:54;;;;;;;3.20;2.00;;;;;;;;;;4944092;28;20230;-79
2022/09/04 13:03:26;;;;;;;3.90;2.10;;;;;;;;;;4943339;28;20206;-80
2022/09/04 13:06:03;;;;;;;2.90;1.93;;;;;;;;;;4939903;28;20299;-78
2022/09/04 13:08:35;;;;;;;5.20;2.00;;;;;;;;;;4946724;28;20206;-77
2022/09/04 13:11:09;;;;;;;2.97;2.10;;;;;;;;;;4950062;28;20197;-78
2022/09/04 13:13:42;;;;;;;2.50;2.07;;;;;;;;;;4941553;28;20297;-77
2022/09/04 13:16:12;;;;;;;2.00;1.73;;;;;;;;;;4944818;28;20233;-79
2022/09/04 13:18:47;;;;;;;2.60;2.00;;;;;;;;;;4951101;28;20697;-78
2022/09/04 13:21:22;;;;;;;5.03;2.00;;;;;;;;;;4943541;28;20751;-79
2022/09/04 13:24:00;;;;;;;4.90;1.90;;;;;;;;;;4947255;28;20216;-79
2022/09/04 13:26:36;;;;;;;3.70;1.80;;;;;;;;;;4947945;28;20225;-79
2022/09/04 13:29:07;;;;;;;4.03;1.70;;;;;;;;;;4949237;28;20235;-78
2022/09/04 13:31:44;;;;;;;1.97;1.77;;;;;;;;;;4949475;28;20657;-79
2022/09/04 13:34:18;;;;;;;4.47;1.87;;;;;;;;;;4948186;28;20661;-78
2022/09/04 13:36:52;;;;;;;3.50;1.80;;;;;;;;;;4950048;28;20269;-77
2022/09/04 13:39:35;;;;;;;2.43;1.80;;;;;;;;;;4946068;28;20213;-78
2022/09/04 13:42:09;;;;;;;2.20;1.70;;;;;;;;;;4948877;28;20206;-78
2022/09/04 13:44:48;;;;;;;2.60;1.87;;;;;;;;;;4947395;28;20294;-79
2022/09/04 13:47:19;;;;;;;2.77;1.80;;;;;;;;;;4948388;28;20241;-78
2022/09/04 13:49:48;;;;;;;2.33;1.73;;;;;;;;;;4947004;28;20242;-77
2022/09/04 13:52:21;;;;;;;2.77;1.90;;;;;;;;;;4947348;28;20223;-80
2022/09/04 13:54:52;;;;;;;3.20;1.80;;;;;;;;;;4952668;28;20237;-79
2022/09/04 13:57:24;;;;;;;5.00;1.77;;;;;;;;;;4950151;28;20224;-78
2022/09/04 13:59:54;;;;;;;2.33;1.60;;;;;;;;;;4946701;28;20218;-79
2022/09/04 14:02:24;;;;;;;2.53;1.70;;;;;;;;;;4948300;28;20217;-77
2022/09/04 14:04:53;;;;;;;2.37;1.80;;;;;;;;;;4949178;28;20206;-79
2022/09/04 14:07:24;;;;;;;4.20;1.70;;;;;;;;;;4946491;28;20233;-77
2022/09/04 14:09:53;;;;;;;2.47;1.77;;;;;;;;;;4945834;28;20332;-78
2022/09/04 14:12:38;;;;;;;2.27;1.70;;;;;;;;;;4946511;28;20242;-78
2022/09/04 14:15:12;;;;;;;1.77;1.40;;;;;;;;;;4947009;28;20268;-78
2022/09/04 14:17:45;;;;;;;2.00;1.60;;;;;;;;;;4949952;28;20599;-77
2022/09/04 14:20:15;;;;;;;3.97;1.60;;;;;;;;;;4945328;28;20218;-78
2022/09/04 14:22:49;;;;;;;1.73;1.60;;;;;;;;;;4947560;28;20257;-78
2022/09/04 14:25:19;;;;;;;5.03;1.80;;;;;;;;;;4950608;28;20228;-78
2022/09/04 14:27:52;;;;;;;3.57;1.47;;;;;;;;;;4944655;29;20744;-78
2022/09/04 14:30:21;;;;;;;2.07;1.40;;;;;;;;;;4946614;28;20211;-77
2022/09/04 14:32:56;;;;;;;3.90;1.63;;;;;;;;;;4951744;28;20300;-78
2022/09/04 14:35:26;;;;;;;2.87;1.27;;;;;;;;;;4944129;28;20221;-77
2022/09/04 14:38:03;;;;;;;2.10;1.33;;;;;;;;;;4950370;28;20317;-78
2022/09/04 14:40:33;;;;;;;2.43;1.50;;;;;;;;;;4950116;28;20206;-78
2022/09/04 14:43:06;;;;;;;2.57;1.40;;;;;;;;;;4948525;28;20217;-78
2022/09/04 14:45:51;;;;;;;2.27;1.30;;;;;;;;;;4949226;28;20623;-79
2022/09/04 14:48:22;;;;;;;1.90;1.50;;;;;;;;;;4951637;28;20262;-79
2022/09/04 14:50:51;;;;;;;2.07;1.40;;;;;;;;;;4950002;28;20741;-79
2022/09/04 14:53:25;;;;;;;1.83;1.13;;;;;;;;;;4946508;28;20703;-77
2022/09/04 14:56:22;;;;;;;2.50;1.30;;;;;;;;;;4951559;28;20612;-78
2022/09/04 14:58:53;;;;;;;2.03;1.50;;;;;;;;;;4883704;29;20237;-79
2022/09/04 15:01:22;;;;;;;2.70;1.30;;;;;;;;;;4938214;28;20214;-79
2022/09/04 15:03:53;;;;;;;5.40;1.30;;;;;;;;;;4951687;28;20206;-78
2022/09/04 15:06:21;;;;;;;1.83;1.20;;;;;;;;;;4945452;28;20626;-78
2022/09/04 15:08:50;;;;;;;4.87;1.50;;;;;;;;;;4947374;28;20685;-78
2022/09/04 15:11:27;;;;;;;2.80;1.30;;;;;;;;;;4946246;28;20505;-79
2022/09/04 15:13:58;;;;;;;1.30;1.17;;;;;;;;;;4943039;28;20207;-79
2022/09/04 15:16:43;;;;;;;1.40;1.20;;;;;;;;;;4944770;28;21352;-78
2022/09/04 15:19:16;;;;;;;1.50;0.90;;;;;;;;;;4942611;28;20213;-78
2022/09/04 15:21:45;;;;;;;1.40;1.00;;;;;;;;;;4946078;28;20756;-78
2022/09/04 15:24:16;;;;;;;1.80;1.00;;;;;;;;;;4945387;28;20269;-80
2022/09/04 15:26:45;;;;;;;4.20;1.20;;;;;;;;;;4951179;28;20787;-79
2022/09/04 15:29:17;;;;;;;1.17;1.00;;;;;;;;;;4950726;28;20719;-79
2022/09/04 15:31:44;;;;;;;4.40;1.00;;;;;;;;;;4946052;28;20221;-79
2022/09/04 15:34:19;;;;;;;1.30;0.97;;;;;;;;;;4948279;28;20217;-79
2022/09/04 15:36:47;;;;;;;5.97;1.20;;;;;;;;;;4944459;28;20241;-77
2022/09/04 15:39:21;;;;;;;1.20;1.10;;;;;;;;;;4945838;28;20215;-78
2022/09/04 15:41:50;;;;;;;1.53;1.00;;;;;;;;;;4949919;28;20257;-78
2022/09/04 15:44:24;;;;;;;1.20;0.87;;;;;;;;;;4951700;28;20230;-79